createdAt,value
2023-10-03T00:01:05.283Z,99649.57
2023-10-03T00:03:44.732Z,99645.72
2023-10-03T00:06:16.414Z,99644.21
2023-10-03T00:08:47.932Z,99642.59
2023-10-03T00:11:23.645Z,99646.77
2023-10-03T00:13:55.251Z,99645.46
2023-10-03T00:16:27.060Z,99646.39
2023-10-03T00:18:58.358Z,99642.09
2023-10-03T00:21:29.704Z,99636.38
2023-10-03T00:24:02.298Z,99633.85
2023-10-03T00:26:34.470Z,99631.10
2023-10-03T00:29:10.973Z,99624.30
2023-10-03T00:31:42.530Z,99606.64
2023-10-03T00:34:15.869Z,99609.21
2023-10-03T00:36:50.302Z,99604.80
2023-10-03T00:39:23.308Z,99605.41
2023-10-03T00:41:54.670Z,99596.78
2023-10-03T00:44:27.450Z,99601.30
2023-10-03T00:46:57.932Z,99599.98
2023-10-03T00:49:30.246Z,99594.92
2023-10-03T00:52:02.152Z,99590.70
2023-10-03T00:54:33.804Z,99588.46
2023-10-03T00:57:06.546Z,99585.75
2023-10-03T00:59:39.558Z,99585.61
2023-10-03T01:02:11.558Z,99583.61
2023-10-03T01:04:42.971Z,99578.41
2023-10-03T01:07:14.809Z,99574.79
2023-10-03T01:09:46.759Z,99572.21
2023-10-03T01:12:19.848Z,99571.30
2023-10-03T01:14:51.959Z,99572.48
2023-10-03T01:17:24.853Z,99571.02
2023-10-03T01:19:57.420Z,99567.88
2023-10-03T01:22:28.724Z,99569.34
2023-10-03T01:25:00.947Z,99566.90
2023-10-03T01:27:32.492Z,99561.94
2023-10-03T01:30:04.096Z,99559.17
2023-10-03T01:32:40.573Z,99554.02
2023-10-03T01:35:14.927Z,99550.05
2023-10-03T01:37:46.930Z,99551.91
2023-10-03T01:40:18.745Z,99551.41
2023-10-03T01:42:50.725Z,99547.35
2023-10-03T01:45:23.601Z,99547.27
2023-10-03T01:48:00.350Z,99543.05
2023-10-03T01:50:35.044Z,99537.05
2023-10-03T01:53:08.973Z,99525.41
2023-10-03T01:55:40.971Z,99517.39
2023-10-03T01:58:12.296Z,99512.81
2023-10-03T02:00:43.629Z,99515.17
2023-10-03T02:03:15.243Z,99515.23
2023-10-03T02:05:47.534Z,99515.37
2023-10-03T02:08:19.390Z,99513.42
2023-10-03T02:10:52.363Z,99510.60
2023-10-03T02:13:24.632Z,99508.58
2023-10-03T02:15:57.583Z,99501.08
2023-10-03T02:18:29.122Z,99497.69
2023-10-03T02:21:02.973Z,99496.54
2023-10-03T02:23:34.823Z,99495.96
2023-10-03T02:26:13.142Z,99494.27
2023-10-03T02:28:44.799Z,99482.79
2023-10-03T02:31:16.714Z,99480.39
2023-10-03T02:33:48.439Z,99475.40
2023-10-03T02:36:19.952Z,99473.94
2023-10-03T02:38:51.781Z,99470.08
2023-10-03T02:41:24.177Z,99471.03
2023-10-03T02:43:56.261Z,99462.80
2023-10-03T02:46:28.177Z,99458.66
2023-10-03T02:48:59.911Z,99464.30
2023-10-03T02:51:31.496Z,99468.30
2023-10-03T02:54:05.733Z,99452.30
2023-10-03T02:56:37.369Z,99442.37
2023-10-03T02:59:08.844Z,99438.05
2023-10-03T03:01:40.153Z,99441.75
2023-10-03T03:04:13.673Z,99443.61
2023-10-03T03:06:47.325Z,99428.29
2023-10-03T03:09:25.048Z,99426.35
2023-10-03T03:12:01.664Z,99420.45
2023-10-03T03:14:33.169Z,99431.02
2023-10-03T03:17:14.775Z,99426.38
2023-10-03T03:19:46.711Z,99432.90
2023-10-03T03:22:22.536Z,99431.87
2023-10-03T03:24:54.725Z,99428.26
2023-10-03T03:27:28.041Z,99424.83
2023-10-03T03:30:24.227Z,99419.77
2023-10-03T03:32:59.296Z,99412.65
2023-10-03T03:35:31.212Z,99408.59
2023-10-03T03:38:06.317Z,99414.41
2023-10-03T03:40:38.110Z,99412.85
2023-10-03T03:43:09.661Z,99417.20
2023-10-03T03:45:41.094Z,99408.02
2023-10-03T03:48:12.638Z,99412.05
2023-10-03T03:50:44.799Z,99399.71
2023-10-03T03:53:17.425Z,99398.14
2023-10-03T03:55:50.677Z,99391.75
2023-10-03T03:58:24.223Z,99396.73
2023-10-03T04:00:56.287Z,99400.91
2023-10-03T04:03:30.361Z,99391.55
2023-10-03T04:06:02.318Z,99389.88
2023-10-03T04:08:34.193Z,99388.56
2023-10-03T04:11:07.094Z,99386.28
2023-10-03T04:13:50.720Z,99389.48
2023-10-03T04:16:23.132Z,99393.05
2023-10-03T04:18:54.514Z,99389.70
2023-10-03T04:21:29.005Z,99380.04
2023-10-03T04:24:00.927Z,99380.58
2023-10-03T04:26:33.962Z,99382.51
2023-10-03T04:29:05.741Z,99380.41
2023-10-03T04:31:38.561Z,99364.24
2023-10-03T04:34:09.081Z,99366.52
2023-10-03T04:36:42.480Z,99369.22
2023-10-03T04:39:14.045Z,99368.29
2023-10-03T04:41:46.945Z,99364.42
2023-10-03T04:44:19.132Z,99371.79
2023-10-03T04:46:50.928Z,99363.38
2023-10-03T04:49:22.273Z,99359.27
2023-10-03T04:51:53.582Z,99353.90
2023-10-03T04:54:24.865Z,99352.79
2023-10-03T04:56:56.314Z,99354.61
2023-10-03T04:59:27.679Z,99352.11
2023-10-03T05:01:59.223Z,99351.65
2023-10-03T05:04:30.627Z,99372.32
2023-10-03T05:07:02.005Z,99376.42
2023-10-03T05:09:34.318Z,99368.63
2023-10-03T05:12:06.835Z,99359.71
2023-10-03T05:14:42.449Z,99354.77
2023-10-03T05:17:15.089Z,99349.37
2023-10-03T05:19:46.705Z,99354.25
2023-10-03T05:22:18.174Z,99363.02
2023-10-03T05:24:51.032Z,99372.85
2023-10-03T05:27:22.362Z,99365.02
2023-10-03T05:29:53.754Z,99361.52
2023-10-03T05:32:27.695Z,99364.05
2023-10-03T05:34:59.628Z,99357.21
2023-10-03T05:37:30.989Z,99353.23
2023-10-03T05:40:12.516Z,99356.41
2023-10-03T05:42:48.428Z,99363.70
2023-10-03T05:45:21.353Z,99357.55
2023-10-03T05:47:51.452Z,99363.36
2023-10-03T05:50:25.144Z,99359.38
2023-10-03T05:52:57.118Z,99364.98
2023-10-03T05:55:28.729Z,99358.38
2023-10-03T05:58:02.307Z,99354.98
2023-10-03T06:00:35.102Z,99360.44
2023-10-03T06:03:07.433Z,99356.29
2023-10-03T06:05:38.945Z,99358.77
2023-10-03T06:08:13.793Z,99361.63
2023-10-03T06:10:45.172Z,99370.13
2023-10-03T06:13:16.486Z,99368.77
2023-10-03T06:15:48.009Z,99377.03
2023-10-03T06:18:20.724Z,99380.25
2023-10-03T06:20:52.425Z,99392.73
2023-10-03T06:23:23.916Z,99393.61
2023-10-03T06:25:55.288Z,99390.85
2023-10-03T06:28:26.622Z,99392.69
2023-10-03T06:30:58.280Z,99394.59
2023-10-03T06:33:29.729Z,99390.23
2023-10-03T06:36:01.143Z,99384.84
2023-10-03T06:38:32.906Z,99384.09
2023-10-03T06:41:05.265Z,99378.55
2023-10-03T06:43:36.837Z,99383.52
2023-10-03T06:46:08.105Z,99376.44
2023-10-03T06:48:39.607Z,99383.42
2023-10-03T06:51:10.937Z,99379.36
2023-10-03T06:53:43.700Z,99378.92
2023-10-03T06:56:15.225Z,99382.98
2023-10-03T06:58:47.529Z,99372.21
2023-10-03T07:01:19.648Z,99365.73
2023-10-03T07:03:53.085Z,99368.08
2023-10-03T07:06:25.275Z,99375.39
2023-10-03T07:08:57.392Z,99379.10
2023-10-03T07:11:29.625Z,99370.13
2023-10-03T07:14:00.996Z,99375.05
2023-10-03T07:16:39.831Z,99390.42
2023-10-03T07:19:11.970Z,99388.96
2023-10-03T07:21:43.587Z,99409.23
2023-10-03T07:24:15.148Z,99417.47
2023-10-03T07:26:46.832Z,99413.85
2023-10-03T07:29:18.772Z,99386.70
2023-10-03T07:31:50.290Z,99383.00
2023-10-03T07:34:22.516Z,99392.76
2023-10-03T07:36:53.841Z,99392.57
2023-10-03T07:39:27.401Z,99401.09
2023-10-03T07:41:58.815Z,99406.27
2023-10-03T07:44:30.270Z,99403.72
2023-10-03T07:47:01.931Z,99394.70
2023-10-03T07:49:33.698Z,99387.20
2023-10-03T07:52:06.062Z,99396.77
2023-10-03T07:54:38.335Z,99398.39
2023-10-03T07:57:11.266Z,99392.73
2023-10-03T07:59:44.723Z,99398.93
2023-10-03T08:02:16.401Z,99408.23
2023-10-03T08:04:48.658Z,99394.01
2023-10-03T08:07:23.303Z,99380.48
2023-10-03T08:09:54.897Z,99387.54
2023-10-03T08:12:26.363Z,99402.03
2023-10-03T08:14:57.750Z,99416.17
2023-10-03T08:17:32.461Z,99417.98
2023-10-03T08:20:06.911Z,99417.66
2023-10-03T08:22:43.159Z,99429.06
2023-10-03T08:25:14.931Z,99424.74
2023-10-03T08:27:47.895Z,99425.55
2023-10-03T08:30:30.603Z,99426.63
2023-10-03T08:33:06.339Z,99421.27
2023-10-03T08:35:39.176Z,99413.27
2023-10-03T08:38:15.772Z,99410.65
2023-10-03T08:40:51.404Z,99405.76
2023-10-03T08:43:27.049Z,99414.88
2023-10-03T08:46:01.983Z,99406.94
2023-10-03T08:48:36.308Z,99386.80
2023-10-03T08:51:14.933Z,99395.98
2023-10-03T08:53:49.209Z,99399.41
2023-10-03T08:56:24.720Z,99416.61
2023-10-03T08:58:57.510Z,99418.38
2023-10-03T09:01:29.974Z,99413.42
2023-10-03T09:04:06.215Z,99410.44
2023-10-03T09:06:40.148Z,99401.27
2023-10-03T09:09:14.712Z,99405.35
2023-10-03T09:11:52.574Z,99413.53
2023-10-03T09:14:24.152Z,99419.02
2023-10-03T09:17:00.540Z,99420.23
2023-10-03T09:19:46.792Z,99411.33
2023-10-03T09:22:33.196Z,99416.99
2023-10-03T09:25:08.476Z,99415.31
2023-10-03T09:27:40.451Z,99422.20
2023-10-03T09:30:24.041Z,99429.73
2023-10-03T09:32:57.504Z,99434.83
2023-10-03T09:35:29.694Z,99429.02
2023-10-03T09:38:06.622Z,99427.63
2023-10-03T09:40:51.959Z,99417.35
2023-10-03T09:43:28.458Z,99415.19
2023-10-03T09:46:01.603Z,99415.08
2023-10-03T09:48:33.692Z,99414.56
2023-10-03T09:51:07.670Z,99408.74
2023-10-03T09:53:43.878Z,99403.33
2023-10-03T09:56:15.440Z,99400.78
2023-10-03T09:58:49.576Z,99408.99
2023-10-03T10:01:21.128Z,99410.86
2023-10-03T10:04:00.732Z,99421.44
2023-10-03T10:06:39.876Z,99420.97
2023-10-03T10:09:15.477Z,99421.20
2023-10-03T10:12:14.587Z,99423.23
2023-10-03T10:15:15.933Z,99436.89
2023-10-03T10:17:52.643Z,99436.34
2023-10-03T10:20:34.310Z,99442.29
2023-10-03T10:23:21.485Z,99440.48
2023-10-03T10:25:53.276Z,99439.25
2023-10-03T10:28:28.461Z,99436.41
2023-10-03T10:31:23.928Z,99439.21
2023-10-03T10:34:38.363Z,99441.95
2023-10-03T10:37:12.318Z,99440.64
2023-10-03T10:40:18.643Z,99443.17
2023-10-03T10:43:01.884Z,99447.98
2023-10-03T10:45:40.810Z,99452.44
2023-10-03T10:48:14.111Z,99443.95
2023-10-03T10:51:14.138Z,99438.30
2023-10-03T10:53:48.379Z,99431.68
2023-10-03T10:56:20.559Z,99438.90
2023-10-03T10:58:54.888Z,99438.81
2023-10-03T11:01:27.928Z,99433.56
2023-10-03T11:04:00.642Z,99433.39
2023-10-03T11:06:32.512Z,99435.30
2023-10-03T11:09:04.540Z,99437.30
2023-10-03T11:11:42.511Z,99433.27
2023-10-03T11:14:14.169Z,99432.23
2023-10-03T11:16:48.385Z,99428.77
2023-10-03T11:19:20.765Z,99430.19
2023-10-03T11:21:52.835Z,99426.19
2023-10-03T11:24:26.050Z,99429.31
2023-10-03T11:26:59.374Z,99423.86
2023-10-03T11:29:44.559Z,99419.77
2023-10-03T11:32:27.646Z,99415.15
2023-10-03T11:35:00.670Z,99412.94
2023-10-03T11:37:38.096Z,99419.09
2023-10-03T11:40:14.322Z,99416.52
2023-10-03T11:42:51.154Z,99418.48
2023-10-03T11:45:24.144Z,99417.84
2023-10-03T11:48:05.879Z,99406.15
2023-10-03T11:50:39.271Z,99401.70
2023-10-03T11:53:12.521Z,99405.32
2023-10-03T11:55:48.394Z,99408.23
2023-10-03T11:58:20.076Z,99406.52
2023-10-03T12:00:52.538Z,99405.34
2023-10-03T12:03:24.265Z,99400.71
2023-10-03T12:05:58.384Z,99403.11
2023-10-03T12:08:30.943Z,99400.27
2023-10-03T12:11:06.234Z,99408.98
2023-10-03T12:13:38.161Z,99415.39
2023-10-03T12:16:09.550Z,99419.52
2023-10-03T12:18:40.990Z,99418.98
2023-10-03T12:21:12.723Z,99414.40
2023-10-03T12:23:46.490Z,99405.51
2023-10-03T12:26:27.348Z,99408.00
2023-10-03T12:29:01.631Z,99392.89
2023-10-03T12:31:39.090Z,99399.15
2023-10-03T12:34:11.660Z,99404.67
2023-10-03T12:36:44.030Z,99403.39
2023-10-03T12:39:19.520Z,99410.24
2023-10-03T12:41:51.112Z,99407.69
2023-10-03T12:44:22.469Z,99411.94
2023-10-03T12:46:53.818Z,99429.29
2023-10-03T12:49:25.124Z,99433.03
2023-10-03T12:51:57.038Z,99438.15
2023-10-03T12:54:28.383Z,99448.63
2023-10-03T12:57:00.896Z,99454.37
2023-10-03T12:59:32.711Z,99449.11
2023-10-03T13:02:07.188Z,99454.59
2023-10-03T13:04:38.606Z,99462.33
2023-10-03T13:07:10.416Z,99464.79
2023-10-03T13:09:42.138Z,99468.90
2023-10-03T13:12:13.967Z,99468.91
2023-10-03T13:14:45.608Z,99470.54
2023-10-03T13:17:17.159Z,99475.17
2023-10-03T13:19:49.283Z,99481.66
2023-10-03T13:22:21.875Z,99488.05
2023-10-03T13:24:53.439Z,99502.75
2023-10-03T13:27:24.772Z,99513.13
2023-10-03T13:29:56.121Z,99525.69
2023-10-03T13:32:28.603Z,99539.88
2023-10-03T13:34:58.751Z,99550.25
2023-10-03T13:37:30.686Z,99550.22
2023-10-03T13:40:06.446Z,99560.82
2023-10-03T13:42:38.203Z,99565.03
2023-10-03T13:45:14.111Z,99567.31
2023-10-03T13:47:47.279Z,99560.63
2023-10-03T13:50:19.675Z,99563.77
2023-10-03T13:52:56.244Z,99569.25
2023-10-03T13:55:30.654Z,99581.44
2023-10-03T13:58:02.715Z,99581.52
2023-10-03T14:00:36.902Z,99580.87
2023-10-03T14:03:09.182Z,99576.23
2023-10-03T14:05:40.807Z,99587.27
2023-10-03T14:08:12.134Z,99595.42
2023-10-03T14:10:45.964Z,99602.56
2023-10-03T14:13:18.095Z,99600.56
2023-10-03T14:15:49.942Z,99606.91
2023-10-03T14:18:21.861Z,99603.11
2023-10-03T14:20:53.939Z,99614.30
2023-10-03T14:23:25.444Z,99616.02
2023-10-03T14:25:56.744Z,99611.93
2023-10-03T14:28:29.333Z,99624.98
2023-10-03T14:31:01.761Z,99624.56
2023-10-03T14:33:32.304Z,99639.48
2023-10-03T14:36:04.387Z,99659.13
2023-10-03T14:38:35.879Z,99671.52
2023-10-03T14:41:07.269Z,99674.96
2023-10-03T14:43:40.638Z,99671.89
2023-10-03T14:46:12.732Z,99668.88
2023-10-03T14:48:45.373Z,99673.86
2023-10-03T14:51:16.936Z,99697.86
2023-10-03T14:53:53.552Z,99714.23
2023-10-03T14:56:26.707Z,99705.02
2023-10-03T14:58:59.123Z,99709.89
2023-10-03T15:01:30.484Z,99712.17
2023-10-03T15:04:02.029Z,99715.98
2023-10-03T15:06:33.747Z,99723.34
2023-10-03T15:09:05.881Z,99724.89
2023-10-03T15:11:37.888Z,99724.78
2023-10-03T15:14:09.503Z,99729.56
2023-10-03T15:16:40.862Z,99750.10
2023-10-03T15:19:12.264Z,99759.34
2023-10-03T15:21:43.583Z,99765.44
2023-10-03T15:24:15.686Z,99775.27
2023-10-03T15:26:47.445Z,99767.27
2023-10-03T15:29:19.060Z,99769.15
2023-10-03T15:31:51.191Z,99779.63
2023-10-03T15:34:31.601Z,99785.88
2023-10-03T15:37:09.548Z,99794.85
2023-10-03T15:39:43.374Z,99807.02
2023-10-03T15:42:15.334Z,99820.16
2023-10-03T15:44:59.289Z,99829.91
2023-10-03T15:47:38.595Z,99819.44
2023-10-03T15:50:12.460Z,99811.23
2023-10-03T15:52:45.548Z,99823.27
2023-10-03T15:55:17.562Z,99815.34
2023-10-03T15:57:49.696Z,99816.32
2023-10-03T16:00:21.455Z,99824.55
2023-10-03T16:02:54.450Z,99837.11
2023-10-03T16:05:26.379Z,99855.46
2023-10-03T16:07:57.725Z,99873.45
2023-10-03T16:10:31.456Z,99879.95
2023-10-03T16:13:03.009Z,99891.18
2023-10-03T16:15:34.480Z,99904.36
2023-10-03T16:18:10.244Z,99906.80
2023-10-03T16:20:43.444Z,99917.35
2023-10-03T16:23:14.838Z,99926.09
2023-10-03T16:25:47.119Z,99930.92
2023-10-03T16:28:18.708Z,99936.38
2023-10-03T16:30:50.253Z,99952.20
2023-10-03T16:33:22.372Z,99956.70
2023-10-03T16:35:53.904Z,99966.20
2023-10-03T16:38:25.802Z,99973.80
2023-10-03T16:40:59.099Z,99980.34
2023-10-03T16:43:30.985Z,99976.90
2023-10-03T16:46:04.487Z,99982.25
2023-10-03T16:48:35.851Z,99981.81
2023-10-03T16:51:07.426Z,99986.83
2023-10-03T16:53:38.886Z,99988.95
2023-10-03T16:56:10.160Z,100006.95
2023-10-03T16:58:41.960Z,100011.60
2023-10-03T17:01:13.880Z,100025.70
2023-10-03T17:03:45.731Z,100044.73
2023-10-03T17:06:17.873Z,100048.30
2023-10-03T17:08:50.052Z,100047.34
2023-10-03T17:11:21.850Z,100060.59
2023-10-03T17:13:54.875Z,100065.84
2023-10-03T17:16:26.243Z,100076.15
2023-10-03T17:18:57.711Z,100084.25
2023-10-03T17:21:30.052Z,100084.20
2023-10-03T17:24:00.547Z,100089.17
2023-10-03T17:26:32.539Z,100094.95
2023-10-03T17:29:05.833Z,100098.65
2023-10-03T17:31:37.365Z,100109.95
2023-10-03T17:34:10.983Z,100114.30
2023-10-03T17:36:42.725Z,100118.02
2023-10-03T17:39:16.691Z,100131.05
2023-10-03T17:41:48.663Z,100140.39
2023-10-03T17:44:49.042Z,100151.23
2023-10-03T17:47:20.697Z,100161.89
2023-10-03T17:49:57.672Z,100172.95
2023-10-03T17:52:29.781Z,100181.63
2023-10-03T17:55:06.994Z,100191.70
2023-10-03T17:57:44.589Z,100198.63
2023-10-03T18:00:18.325Z,100207.80
2023-10-03T18:02:53.183Z,100215.27
2023-10-03T18:05:27.008Z,100221.81
2023-10-03T18:07:58.448Z,100232.56
2023-10-03T18:10:33.902Z,100243.73
2023-10-03T18:13:06.903Z,100249.34
2023-10-03T18:15:44.401Z,100256.71
2023-10-03T18:18:15.959Z,100261.80
2023-10-03T18:20:48.859Z,100272.75
2023-10-03T18:23:23.048Z,100280.98
2023-10-03T18:25:55.891Z,100290.88
2023-10-03T18:28:29.267Z,100301.42
2023-10-03T18:31:00.786Z,100311.05
2023-10-03T18:33:32.682Z,100320.05
2023-10-03T18:36:04.534Z,100325.11
2023-10-03T18:38:35.981Z,100330.84
2023-10-03T18:41:09.369Z,100337.92
2023-10-03T18:43:40.704Z,100343.56
2023-10-03T18:46:12.865Z,100353.61
2023-10-03T18:48:45.029Z,100364.30
2023-10-03T18:51:17.447Z,100370.98
2023-10-03T18:53:50.685Z,100380.08
2023-10-03T18:56:23.653Z,100387.92
2023-10-03T18:58:55.307Z,100393.50
2023-10-03T19:04:17.241Z,100405.55
2023-10-03T19:07:06.657Z,100400.10
2023-10-03T19:09:52.273Z,100401.48
2023-10-03T19:12:23.584Z,100400.02
2023-10-03T19:15:10.844Z,100403.59
2023-10-03T19:17:45.576Z,100412.16
2023-10-03T19:20:22.699Z,100420.02
2023-10-03T19:22:56.428Z,100421.78
2023-10-03T19:25:34.128Z,100418.68
2023-10-03T19:28:09.925Z,100415.58
2023-10-03T19:30:46.133Z,100423.83
2023-10-03T19:33:17.836Z,100433.78
2023-10-03T19:35:49.819Z,100441.76
2023-10-03T19:38:21.433Z,100449.54
2023-10-03T19:40:54.693Z,100460.34
2023-10-03T19:43:28.935Z,100470.44
2023-10-03T19:46:03.694Z,100481.19
2023-10-03T19:48:36.998Z,100484.09
2023-10-03T19:51:12.332Z,100489.27
2023-10-03T19:53:43.959Z,100501.61
2023-10-03T19:56:18.018Z,100509.21
2023-10-03T19:58:51.386Z,100519.11
2023-10-03T20:01:26.772Z,100524.28
2023-10-03T20:04:00.548Z,100532.77
2023-10-03T20:06:32.935Z,100535.12
2023-10-03T20:09:06.289Z,100541.55
2023-10-03T20:11:37.993Z,100550.51
2023-10-03T20:14:10.415Z,100557.54
2023-10-03T20:16:43.187Z,100556.66
2023-10-03T20:19:13.987Z,100574.08
2023-10-03T20:21:45.004Z,100583.39
2023-10-03T20:24:17.700Z,100585.38
2023-10-03T20:26:49.502Z,100586.23
2023-10-03T20:29:21.447Z,100595.23
2023-10-03T20:31:53.139Z,100601.53
2023-10-03T20:34:24.606Z,100600.73
2023-10-03T20:36:58.811Z,100600.52
2023-10-03T20:39:34.759Z,100606.03
2023-10-03T20:42:07.663Z,100609.52
2023-10-03T20:44:39.657Z,100609.73
2023-10-03T20:47:11.470Z,100611.02
2023-10-03T20:49:44.529Z,100616.61
2023-10-03T20:52:16.302Z,100621.73
2023-10-03T20:54:48.463Z,100622.69
2023-10-03T20:57:20.360Z,100631.99
2023-10-03T20:59:52.110Z,100644.91
2023-10-03T21:02:24.525Z,100649.27
2023-10-03T21:04:57.111Z,100646.14
2023-10-03T21:07:28.891Z,100648.33
2023-10-03T21:10:00.250Z,100651.88
2023-10-03T21:12:31.676Z,100653.27
2023-10-03T21:15:03.935Z,100655.88
2023-10-03T21:17:35.483Z,100660.49
2023-10-03T21:20:12.739Z,100658.77
2023-10-03T21:22:45.998Z,100664.91
2023-10-03T21:25:17.568Z,100657.36
2023-10-03T21:27:49.134Z,100661.41
2023-10-03T21:30:22.007Z,100665.05
2023-10-03T21:32:53.454Z,100662.15
2023-10-03T21:35:26.663Z,100657.70
2023-10-03T21:37:59.093Z,100653.98
2023-10-03T21:40:30.583Z,100656.69
2023-10-03T21:43:02.558Z,100660.30
2023-10-03T21:45:35.854Z,100651.92
2023-10-03T21:48:10.054Z,100645.24
2023-10-03T21:50:44.705Z,100647.32
2023-10-03T21:53:16.051Z,100646.58
2023-10-03T21:55:48.341Z,100642.67
2023-10-03T21:58:19.804Z,100636.91
2023-10-03T22:00:59.888Z,100637.75
2023-10-03T22:03:32.996Z,100634.55
2023-10-03T22:06:04.409Z,100631.67
2023-10-03T22:08:35.822Z,100626.27
2023-10-03T22:11:07.200Z,100622.59
2023-10-03T22:13:39.006Z,100624.95
2023-10-03T22:16:10.584Z,100625.12
2023-10-03T22:18:41.989Z,100626.11
2023-10-03T22:21:50.396Z,100624.23
2023-10-03T22:24:41.711Z,100626.91
2023-10-03T22:27:13.025Z,100625.48
2023-10-03T22:29:44.594Z,100630.04
2023-10-03T22:32:17.218Z,100628.85
2023-10-03T22:34:48.555Z,100632.32
2023-10-03T22:37:19.923Z,100631.02
2023-10-03T22:39:52.044Z,100630.42
2023-10-03T22:42:23.632Z,100632.15
2023-10-03T22:44:55.115Z,100632.20
2023-10-03T22:47:26.557Z,100634.44
2023-10-03T22:49:58.746Z,100638.48
2023-10-03T22:52:35.724Z,100635.63
2023-10-03T22:55:09.815Z,100638.58
2023-10-03T22:57:41.461Z,100641.89
2023-10-03T23:00:16.054Z,100642.27
2023-10-03T23:02:47.947Z,100642.30
2023-10-03T23:05:20.126Z,100641.70
2023-10-03T23:07:51.464Z,100641.74
2023-10-03T23:10:24.540Z,100638.67
2023-10-03T23:12:56.651Z,100640.11
2023-10-03T23:15:29.448Z,100639.55
2023-10-03T23:18:00.008Z,100633.12
2023-10-03T23:20:31.633Z,100638.64
2023-10-03T23:23:03.190Z,100640.55
2023-10-03T23:25:36.180Z,100639.97
2023-10-03T23:28:09.859Z,100644.45
2023-10-03T23:30:44.105Z,100645.13
2023-10-03T23:33:15.625Z,100650.17
2023-10-03T23:35:48.123Z,100648.83
2023-10-03T23:38:19.537Z,100645.39
2023-10-03T23:40:50.980Z,100643.77
2023-10-03T23:43:22.320Z,100643.54
2023-10-03T23:45:53.915Z,100645.45
2023-10-03T23:48:26.698Z,100650.20
2023-10-03T23:50:58.190Z,100654.02
2023-10-03T23:53:29.655Z,100648.70
2023-10-03T23:56:00.982Z,100644.48
2023-10-03T23:58:34.609Z,100641.98
